Time;durP1;ratioP1;P1;durP2;ratioP2;P2;SDS_P1;SDS_P2;PMS_P1;PMS_P2;Temp;Humidity;BMP_temperature;BMP_pressure;BME280_temperature;BME280_humidity;BME280_pressure;Samples;Min_cycle;Max_cycle;Signal;HPM_P1;HPM_P2
2023/01/18 00:00:26;;;;;;;1.30;1.20;;;;;;;;;;5074923;28;20201;-86
2023/01/18 00:02:55;;;;;;;1.63;1.53;;;;;;;;;;5074741;28;20209;-86
2023/01/18 00:05:25;;;;;;;1.47;1.37;;;;;;;;;;5074562;28;20222;-86
2023/01/18 00:07:53;;;;;;;4.70;1.97;;;;;;;;;;5074822;28;20205;-86
2023/01/18 00:10:22;;;;;;;1.40;1.40;;;;;;;;;;5074561;28;20248;-86
2023/01/18 00:12:52;;;;;;;4.20;3.90;;;;;;;;;;5074558;28;20201;-86
2023/01/18 00:15:20;;;;;;;1.10;1.10;;;;;;;;;;5074563;28;20198;-86
2023/01/18 00:17:50;;;;;;;1.63;1.53;;;;;;;;;;5075710;28;20327;-86
2023/01/18 00:20:19;;;;;;;1.73;1.53;;;;;;;;;;5075572;28;20245;-86
2023/01/18 00:22:48;;;;;;;2.13;1.80;;;;;;;;;;5075534;28;20207;-86
2023/01/18 00:25:16;;;;;;;1.07;1.07;;;;;;;;;;5091045;28;20288;-86
2023/01/18 00:27:46;;;;;;;1.77;1.53;;;;;;;;;;5075130;28;20236;-86
2023/01/18 00:30:17;;;;;;;1.23;1.23;;;;;;;;;;5075439;28;20292;-86
2023/01/18 00:32:45;;;;;;;2.50;1.57;;;;;;;;;;5091282;28;20232;-86
2023/01/18 00:35:14;;;;;;;1.50;1.40;;;;;;;;;;5074330;28;20247;-86
2023/01/18 00:37:43;;;;;;;3.13;2.20;;;;;;;;;;5074610;28;20197;-86
2023/01/18 00:40:12;;;;;;;2.30;1.90;;;;;;;;;;5074976;28;20201;-86
2023/01/18 00:45:29;;;;;;;2.50;2.10;;;;;;;;;;5075193;28;20205;-86
2023/01/18 00:47:58;;;;;;;1.20;1.20;;;;;;;;;;5074727;28;20194;-85
2023/01/18 00:50:26;;;;;;;1.80;1.33;;;;;;;;;;5074074;28;20270;-86
2023/01/18 00:52:56;;;;;;;1.90;1.80;;;;;;;;;;5074010;28;20212;-86
2023/01/18 00:55:25;;;;;;;1.50;1.40;;;;;;;;;;5073623;28;20304;-86
2023/01/18 00:57:53;;;;;;;1.87;1.77;;;;;;;;;;5074135;28;20205;-86
2023/01/18 01:00:25;;;;;;;2.03;1.67;;;;;;;;;;5073444;28;20243;-86
2023/01/18 01:02:55;;;;;;;5.40;2.23;;;;;;;;;;5074975;28;20228;-86
2023/01/18 01:08:15;;;;;;;2.20;1.87;;;;;;;;;;5074810;28;20209;-86
2023/01/18 01:10:45;;;;;;;1.47;1.37;;;;;;;;;;5074711;28;20223;-86
2023/01/18 01:27:06;;;;;;;5.20;2.37;;;;;;;;;;5074207;28;20227;-86
2023/01/18 01:29:34;;;;;;;2.83;2.00;;;;;;;;;;5074248;28;20286;-86
2023/01/18 01:32:02;;;;;;;7.40;4.17;;;;;;;;;;5073305;28;20295;-86
2023/01/18 01:34:32;;;;;;;5.73;2.97;;;;;;;;;;5072988;28;20223;-86
2023/01/18 01:37:01;;;;;;;2.07;1.87;;;;;;;;;;5073148;28;20201;-86
2023/01/18 01:39:29;;;;;;;2.70;2.50;;;;;;;;;;5072813;28;20208;-85
2023/01/18 01:41:58;;;;;;;3.10;1.97;;;;;;;;;;5073283;28;20208;-86
2023/01/18 01:44:41;;;;;;;2.17;1.97;;;;;;;;;;5090040;28;20230;-86
2023/01/18 01:47:12;;;;;;;6.97;4.17;;;;;;;;;;5070311;28;20315;-86
2023/01/18 01:49:43;;;;;;;3.90;2.93;;;;;;;;;;5073815;28;20212;-86
2023/01/18 01:52:13;;;;;;;3.17;2.40;;;;;;;;;;5074011;28;20228;-86
2023/01/18 01:54:44;;;;;;;3.57;2.50;;;;;;;;;;5073824;28;20234;-86
2023/01/18 01:57:14;;;;;;;4.23;2.60;;;;;;;;;;5089529;28;20254;-86
2023/01/18 01:59:46;;;;;;;1.60;1.50;;;;;;;;;;5073918;28;20258;-86
2023/01/18 02:02:14;;;;;;;4.37;3.17;;;;;;;;;;5089782;28;20193;-86
2023/01/18 02:04:45;;;;;;;3.57;2.93;;;;;;;;;;5072968;28;20201;-86
2023/01/18 02:07:13;;;;;;;4.93;3.90;;;;;;;;;;5072161;28;20220;-86
2023/01/18 02:09:42;;;;;;;2.77;2.53;;;;;;;;;;5072871;28;20203;-86
2023/01/18 02:12:10;;;;;;;3.60;3.27;;;;;;;;;;5072692;28;20295;-86
2023/01/18 02:14:39;;;;;;;4.30;2.70;;;;;;;;;;5072796;28;20210;-86
2023/01/18 02:17:15;;;;;;;1.90;1.70;;;;;;;;;;5072800;28;20192;-86
2023/01/18 02:19:56;;;;;;;2.53;2.33;;;;;;;;;;5073500;28;20199;-86
2023/01/18 02:22:32;;;;;;;2.17;2.07;;;;;;;;;;5073530;28;20288;-86
2023/01/18 02:25:17;;;;;;;5.33;3.30;;;;;;;;;;5089728;28;20253;-86
2023/01/18 02:27:47;;;;;;;4.43;2.00;;;;;;;;;;5072518;28;20223;-86
2023/01/18 02:30:23;;;;;;;4.53;3.00;;;;;;;;;;5073818;28;20249;-86
2023/01/18 02:32:58;;;;;;;4.60;2.90;;;;;;;;;;5073638;28;20204;-86
2023/01/18 02:35:32;;;;;;;6.33;2.80;;;;;;;;;;5072449;28;20320;-86
2023/01/18 02:38:04;;;;;;;4.03;2.20;;;;;;;;;;5072200;28;20220;-86
2023/01/18 02:40:34;;;;;;;3.47;2.90;;;;;;;;;;5073195;28;20283;-85
2023/01/18 02:48:46;;;;;;;3.53;1.97;;;;;;;;;;5052739;28;20239;-86
2023/01/18 02:51:14;;;;;;;2.83;1.83;;;;;;;;;;5077707;28;20197;-86
2023/01/18 02:53:44;;;;;;;3.90;1.83;;;;;;;;;;5076101;28;20319;-86
2023/01/18 02:56:14;;;;;;;2.20;1.93;;;;;;;;;;5077267;28;20266;-86
2023/01/18 02:58:44;;;;;;;1.20;1.20;;;;;;;;;;5076260;28;20299;-86
2023/01/18 03:01:17;;;;;;;1.90;1.43;;;;;;;;;;5076335;28;20331;-86
2023/01/18 03:03:47;;;;;;;3.03;1.50;;;;;;;;;;5076247;28;20235;-86
2023/01/18 03:06:16;;;;;;;2.00;1.90;;;;;;;;;;5075920;28;20248;-86
2023/01/18 03:08:46;;;;;;;7.17;2.73;;;;;;;;;;5092719;28;20216;-86
2023/01/18 03:11:15;;;;;;;3.67;2.17;;;;;;;;;;5092746;28;20256;-86
2023/01/18 03:13:58;;;;;;;5.27;3.27;;;;;;;;;;5075636;28;20215;-86
2023/01/18 03:16:38;;;;;;;4.57;2.80;;;;;;;;;;5075625;28;20200;-86
2023/01/18 03:21:56;;;;;;;1.67;1.50;;;;;;;;;;5075485;28;20244;-86
2023/01/18 03:24:23;;;;;;;2.10;1.90;;;;;;;;;;5075845;28;20261;-86
2023/01/18 03:26:53;;;;;;;2.07;1.53;;;;;;;;;;5076512;28;20201;-86
2023/01/18 03:35:00;;;;;;;3.70;1.50;;;;;;;;;;5075458;28;20237;-86
2023/01/18 03:37:30;;;;;;;1.87;1.57;;;;;;;;;;5075432;28;20201;-86
2023/01/18 03:40:01;;;;;;;2.63;2.40;;;;;;;;;;5076246;28;20231;-86
2023/01/18 03:42:34;;;;;;;1.10;1.10;;;;;;;;;;5075262;28;20197;-86
2023/01/18 03:45:06;;;;;;;1.30;1.30;;;;;;;;;;5075374;28;20226;-86
2023/01/18 03:47:36;;;;;;;1.00;1.00;;;;;;;;;;5076039;28;20270;-86
2023/01/18 03:50:05;;;;;;;3.00;2.43;;;;;;;;;;5075131;28;20262;-86
2023/01/18 03:52:37;;;;;;;1.13;1.13;;;;;;;;;;5076210;28;20287;-86
2023/01/18 03:55:07;;;;;;;1.83;1.67;;;;;;;;;;5075987;28;20285;-86
2023/01/18 03:57:39;;;;;;;2.43;2.23;;;;;;;;;;5074748;28;20242;-86
2023/01/18 04:00:08;;;;;;;1.50;1.40;;;;;;;;;;5075044;28;20204;-86
2023/01/18 04:02:38;;;;;;;3.40;2.27;;;;;;;;;;5075800;28;20197;-86
2023/01/18 04:05:07;;;;;;;1.70;1.37;;;;;;;;;;5074839;28;20212;-86
2023/01/18 04:07:36;;;;;;;0.80;0.80;;;;;;;;;;5074365;28;20206;-85
2023/01/18 04:10:04;;;;;;;1.07;1.07;;;;;;;;;;5075856;28;20217;-86
2023/01/18 04:12:33;;;;;;;3.43;1.60;;;;;;;;;;5075534;28;20201;-86
2023/01/18 04:15:02;;;;;;;1.20;1.20;;;;;;;;;;5075792;28;20205;-86
2023/01/18 04:17:30;;;;;;;2.70;1.73;;;;;;;;;;5074706;28;20213;-86
2023/01/18 04:20:00;;;;;;;3.20;2.03;;;;;;;;;;5074263;28;20202;-86
2023/01/18 04:22:28;;;;;;;1.60;1.50;;;;;;;;;;5074790;28;20201;-86
2023/01/18 04:24:57;;;;;;;4.43;2.70;;;;;;;;;;5075808;28;20197;-86
2023/01/18 04:27:25;;;;;;;2.93;1.33;;;;;;;;;;5074726;28;20245;-86
2023/01/18 04:29:53;;;;;;;1.23;1.07;;;;;;;;;;5075559;28;20286;-86
2023/01/18 04:32:22;;;;;;;1.30;1.20;;;;;;;;;;5075441;28;20211;-86
2023/01/18 04:34:50;;;;;;;1.00;1.00;;;;;;;;;;5091109;28;20254;-86
2023/01/18 04:37:20;;;;;;;2.87;2.40;;;;;;;;;;5074547;28;20303;-86
2023/01/18 04:39:49;;;;;;;0.80;0.80;;;;;;;;;;5091384;28;20201;-86
2023/01/18 04:42:17;;;;;;;5.17;1.90;;;;;;;;;;5073943;28;20277;-86
2023/01/18 04:44:45;;;;;;;3.50;1.77;;;;;;;;;;5074088;28;20201;-85
2023/01/18 04:47:14;;;;;;;2.07;1.97;;;;;;;;;;5074451;28;20211;-86
2023/01/18 04:49:42;;;;;;;1.20;1.13;;;;;;;;;;5074022;28;20253;-86
2023/01/18 04:52:10;;;;;;;2.33;1.53;;;;;;;;;;5074114;28;20239;-86
2023/01/18 04:54:40;;;;;;;1.13;1.13;;;;;;;;;;5090874;28;20198;-86
2023/01/18 04:57:08;;;;;;;4.00;3.83;;;;;;;;;;5073771;28;20220;-86
2023/01/18 04:59:38;;;;;;;1.53;1.33;;;;;;;;;;5073504;28;20224;-86
2023/01/18 05:02:06;;;;;;;1.83;1.73;;;;;;;;;;5074725;28;20223;-86
2023/01/18 05:04:35;;;;;;;1.70;1.60;;;;;;;;;;5074390;28;20202;-86
2023/01/18 05:07:03;;;;;;;1.17;0.97;;;;;;;;;;5073320;28;20252;-86
2023/01/18 05:09:32;;;;;;;2.50;2.30;;;;;;;;;;5073050;28;20221;-85
2023/01/18 05:12:02;;;;;;;4.23;2.30;;;;;;;;;;5073376;28;20201;-86
2023/01/18 05:14:31;;;;;;;7.13;1.73;;;;;;;;;;5073674;28;20231;-86
2023/01/18 05:16:59;;;;;;;1.17;1.17;;;;;;;;;;5073635;28;20205;-86
2023/01/18 05:19:29;;;;;;;1.07;1.07;;;;;;;;;;5073505;28;20257;-86
2023/01/18 05:21:57;;;;;;;1.30;1.30;;;;;;;;;;5074327;28;20258;-86
2023/01/18 05:24:26;;;;;;;1.43;1.33;;;;;;;;;;5074318;28;20291;-86
2023/01/18 05:26:57;;;;;;;2.00;1.70;;;;;;;;;;5074159;28;20233;-86
2023/01/18 05:29:26;;;;;;;1.83;1.70;;;;;;;;;;5073094;28;20228;-85
2023/01/18 05:31:55;;;;;;;1.33;1.27;;;;;;;;;;5073283;28;20295;-86
2023/01/18 05:34:23;;;;;;;2.30;1.80;;;;;;;;;;5074117;28;20202;-86
2023/01/18 05:36:51;;;;;;;1.77;1.67;;;;;;;;;;5074006;28;20292;-86
2023/01/18 05:39:20;;;;;;;1.47;1.37;;;;;;;;;;5072731;28;20227;-86
2023/01/18 05:41:48;;;;;;;1.80;1.20;;;;;;;;;;5073380;28;20194;-86
2023/01/18 05:44:17;;;;;;;0.90;0.90;;;;;;;;;;5073810;28;20250;-86
2023/01/18 05:46:46;;;;;;;4.00;1.90;;;;;;;;;;5074357;28;20229;-86
2023/01/18 05:49:15;;;;;;;2.90;1.67;;;;;;;;;;5073013;28;20312;-85
2023/01/18 05:51:43;;;;;;;3.77;1.50;;;;;;;;;;5089607;28;20316;-86
2023/01/18 05:54:12;;;;;;;1.37;1.37;;;;;;;;;;5072977;28;20292;-86
2023/01/18 05:56:40;;;;;;;0.87;0.87;;;;;;;;;;5089857;28;20201;-86
2023/01/18 05:59:09;;;;;;;4.33;1.87;;;;;;;;;;5072481;28;20240;-86
2023/01/18 06:01:37;;;;;;;1.40;1.30;;;;;;;;;;5072714;28;20265;-86
2023/01/18 06:04:07;;;;;;;3.60;1.50;;;;;;;;;;5072881;28;20197;-86
2023/01/18 06:06:36;;;;;;;1.43;1.33;;;;;;;;;;5073512;28;20267;-84
2023/01/18 06:09:04;;;;;;;1.83;1.53;;;;;;;;;;5072618;28;20263;-86
2023/01/18 06:11:32;;;;;;;1.43;1.40;;;;;;;;;;5072838;28;20208;-86
2023/01/18 06:14:01;;;;;;;1.53;1.43;;;;;;;;;;5072394;28;20193;-86
2023/01/18 06:16:29;;;;;;;3.23;1.40;;;;;;;;;;5072708;28;20206;-86
2023/01/18 06:18:57;;;;;;;0.80;0.80;;;;;;;;;;5073863;28;20198;-86
2023/01/18 06:21:27;;;;;;;2.70;1.60;;;;;;;;;;5079115;28;20262;-86
2023/01/18 06:23:55;;;;;;;1.27;1.27;;;;;;;;;;5080169;28;20259;-86
2023/01/18 06:26:24;;;;;;;4.13;1.20;;;;;;;;;;5079040;28;20316;-86
2023/01/18 06:28:52;;;;;;;0.90;0.90;;;;;;;;;;5095801;28;20213;-86
2023/01/18 06:31:20;;;;;;;1.00;1.00;;;;;;;;;;5079044;28;20274;-86
2023/01/18 06:33:49;;;;;;;5.07;2.90;;;;;;;;;;5079135;28;20194;-86
2023/01/18 06:36:17;;;;;;;2.50;2.00;;;;;;;;;;5078871;28;20202;-86
2023/01/18 06:38:47;;;;;;;1.53;1.43;;;;;;;;;;5079306;28;20201;-85
2023/01/18 06:41:16;;;;;;;1.50;1.40;;;;;;;;;;5079398;28;20251;-86
2023/01/18 06:43:44;;;;;;;3.17;1.27;;;;;;;;;;5079071;28;20267;-86
2023/01/18 06:46:12;;;;;;;1.17;1.17;;;;;;;;;;5079982;28;20409;-86
2023/01/18 06:48:41;;;;;;;1.07;1.07;;;;;;;;;;5079935;28;20261;-86
2023/01/18 06:51:11;;;;;;;2.20;1.50;;;;;;;;;;5078683;28;20209;-85
2023/01/18 06:53:39;;;;;;;1.73;1.63;;;;;;;;;;5078956;28;20251;-86
2023/01/18 06:56:11;;;;;;;1.10;1.10;;;;;;;;;;5079804;28;20201;-86
2023/01/18 06:58:40;;;;;;;1.47;1.43;;;;;;;;;;5078999;28;20204;-85
2023/01/18 07:01:08;;;;;;;1.77;1.63;;;;;;;;;;5078771;28;20201;-86
2023/01/18 07:03:37;;;;;;;4.00;2.33;;;;;;;;;;5078522;28;20207;-86
2023/01/18 07:06:06;;;;;;;1.33;1.20;;;;;;;;;;5078490;28;20221;-85
2023/01/18 07:08:35;;;;;;;1.73;1.63;;;;;;;;;;5078917;28;20206;-86
2023/01/18 07:11:07;;;;;;;1.57;1.47;;;;;;;;;;5078798;28;20240;-86
2023/01/18 07:13:39;;;;;;;4.13;2.13;;;;;;;;;;5079031;28;20224;-86
2023/01/18 07:16:07;;;;;;;2.90;1.97;;;;;;;;;;5078780;28;20232;-86
2023/01/18 07:18:36;;;;;;;5.93;1.63;;;;;;;;;;5095738;28;20240;-86
2023/01/18 07:21:05;;;;;;;2.87;1.57;;;;;;;;;;5079398;28;20233;-85
2023/01/18 07:23:35;;;;;;;2.33;1.90;;;;;;;;;;5078982;28;20194;-85
2023/01/18 07:26:04;;;;;;;0.80;0.80;;;;;;;;;;5079038;28;20203;-86
2023/01/18 07:28:33;;;;;;;1.40;1.30;;;;;;;;;;5078588;28;20251;-85
2023/01/18 07:31:03;;;;;;;1.03;1.03;;;;;;;;;;5076195;28;20222;-86
2023/01/18 07:33:31;;;;;;;4.03;1.60;;;;;;;;;;5075731;28;20194;-85
2023/01/18 07:36:00;;;;;;;2.50;2.00;;;;;;;;;;5075363;28;20241;-86
2023/01/18 07:38:29;;;;;;;2.33;1.33;;;;;;;;;;5075431;28;20198;-85
2023/01/18 07:41:01;;;;;;;1.70;1.60;;;;;;;;;;5075315;28;20197;-85
2023/01/18 07:43:29;;;;;;;1.60;1.27;;;;;;;;;;5075462;28;20224;-85
2023/01/18 07:45:58;;;;;;;1.93;1.47;;;;;;;;;;5075183;28;20229;-86
2023/01/18 07:48:30;;;;;;;2.00;1.83;;;;;;;;;;5075442;28;20205;-86
2023/01/18 07:51:00;;;;;;;14.57;2.97;;;;;;;;;;5075192;28;20220;-86
2023/01/18 07:53:29;;;;;;;1.73;1.63;;;;;;;;;;5076399;28;20197;-86
2023/01/18 07:56:00;;;;;;;1.47;1.47;;;;;;;;;;5074699;28;20229;-86
2023/01/18 07:58:28;;;;;;;1.40;1.30;;;;;;;;;;5074968;28;20211;-86
2023/01/18 08:01:02;;;;;;;2.37;1.40;;;;;;;;;;5074848;28;20228;-86
2023/01/18 08:03:31;;;;;;;1.77;1.67;;;;;;;;;;5074653;28;20193;-86
2023/01/18 08:06:00;;;;;;;3.33;1.70;;;;;;;;;;5074890;28;20221;-86
2023/01/18 08:08:29;;;;;;;1.70;1.23;;;;;;;;;;5076092;28;20197;-86
2023/01/18 08:10:58;;;;;;;1.97;1.83;;;;;;;;;;5074355;28;20217;-86
2023/01/18 08:13:27;;;;;;;0.93;0.93;;;;;;;;;;5075453;28;20198;-86
2023/01/18 08:15:56;;;;;;;1.00;1.00;;;;;;;;;;5074257;28;20233;-86
2023/01/18 08:18:24;;;;;;;2.47;1.53;;;;;;;;;;5074341;28;20202;-85
2023/01/18 08:20:54;;;;;;;1.00;1.00;;;;;;;;;;5075349;28;20233;-86
2023/01/18 08:23:22;;;;;;;1.47;1.37;;;;;;;;;;5074388;28;20251;-86
2023/01/18 08:25:51;;;;;;;0.80;0.80;;;;;;;;;;5074162;28;20247;-86
2023/01/18 08:28:19;;;;;;;1.67;1.57;;;;;;;;;;5075420;28;20202;-86
2023/01/18 08:30:48;;;;;;;1.33;1.33;;;;;;;;;;5074362;28;20218;-86
2023/01/18 08:33:17;;;;;;;1.40;1.13;;;;;;;;;;5091394;28;20216;-86
2023/01/18 08:35:46;;;;;;;1.40;1.40;;;;;;;;;;5091104;28;20205;-86
2023/01/18 08:38:16;;;;;;;2.20;1.87;;;;;;;;;;5074144;28;20301;-86
2023/01/18 08:40:45;;;;;;;2.37;2.27;;;;;;;;;;5075133;28;20190;-86
2023/01/18 08:43:13;;;;;;;4.00;1.60;;;;;;;;;;5074031;28;20289;-86
2023/01/18 08:45:41;;;;;;;1.57;1.57;;;;;;;;;;5075015;28;20259;-86
2023/01/18 08:48:10;;;;;;;2.53;1.20;;;;;;;;;;5073952;28;20202;-86
2023/01/18 08:50:41;;;;;;;2.80;1.40;;;;;;;;;;5073610;28;20235;-86
2023/01/18 08:53:10;;;;;;;1.13;1.03;;;;;;;;;;5073358;28;20198;-86
2023/01/18 08:55:40;;;;;;;1.13;1.00;;;;;;;;;;5073567;28;20240;-79
2023/01/18 08:58:08;;;;;;;3.77;3.57;;;;;;;;;;5090716;28;20255;-79
2023/01/18 09:00:36;;;;;;;1.10;1.10;;;;;;;;;;5073702;28;20236;-79
2023/01/18 09:03:05;;;;;;;1.47;1.30;;;;;;;;;;5073086;28;20224;-79
2023/01/18 09:05:35;;;;;;;2.47;2.33;;;;;;;;;;5077876;28;20304;-82
2023/01/18 09:08:14;;;;;;;1.70;1.60;;;;;;;;;;5075452;28;20221;-85
2023/01/18 09:10:44;;;;;;;2.20;1.50;;;;;;;;;;5078071;28;20225;-83
2023/01/18 09:13:12;;;;;;;1.40;1.20;;;;;;;;;;5080585;28;20201;-82
2023/01/18 09:15:40;;;;;;;1.27;1.17;;;;;;;;;;5076250;28;20263;-83
2023/01/18 09:18:09;;;;;;;1.13;1.03;;;;;;;;;;5078449;28;20197;-84
2023/01/18 09:20:38;;;;;;;1.60;1.07;;;;;;;;;;5077636;28;20274;-82
2023/01/18 09:23:07;;;;;;;1.50;1.40;;;;;;;;;;5081381;28;20201;-81
2023/01/18 09:25:36;;;;;;;1.63;1.53;;;;;;;;;;5082127;28;20189;-83
2023/01/18 09:28:06;;;;;;;1.53;1.37;;;;;;;;;;5077673;28;20216;-82
2023/01/18 09:30:35;;;;;;;1.87;1.77;;;;;;;;;;5077076;28;20225;-82
2023/01/18 09:33:07;;;;;;;1.10;1.10;;;;;;;;;;5080898;28;20197;-82
2023/01/18 09:35:39;;;;;;;2.67;1.33;;;;;;;;;;5074317;28;20231;-83
2023/01/18 09:38:09;;;;;;;2.93;1.83;;;;;;;;;;5075399;28;20240;-83
2023/01/18 09:40:42;;;;;;;2.50;1.30;;;;;;;;;;5079625;28;20185;-81
2023/01/18 09:43:17;;;;;;;1.60;1.50;;;;;;;;;;5077467;28;20217;-81
2023/01/18 09:45:46;;;;;;;2.83;1.37;;;;;;;;;;5085313;28;20201;-81
2023/01/18 09:48:20;;;;;;;1.47;1.37;;;;;;;;;;5075967;28;20201;-84
2023/01/18 09:50:52;;;;;;;2.17;1.53;;;;;;;;;;5084186;28;20208;-83
2023/01/18 09:53:26;;;;;;;2.07;1.30;;;;;;;;;;5074775;28;20207;-82
2023/01/18 09:55:58;;;;;;;1.37;1.20;;;;;;;;;;5077953;28;20265;-82
2023/01/18 09:58:34;;;;;;;2.37;1.40;;;;;;;;;;5074922;28;20207;-82
2023/01/18 10:01:04;;;;;;;1.33;1.30;;;;;;;;;;5074846;28;20230;-82
2023/01/18 10:03:36;;;;;;;1.20;1.20;;;;;;;;;;5078320;28;20223;-83
2023/01/18 10:06:14;;;;;;;2.73;1.40;;;;;;;;;;5089031;28;20233;-82
2023/01/18 10:08:46;;;;;;;5.50;1.97;;;;;;;;;;5071408;28;20200;-81
2023/01/18 10:11:19;;;;;;;2.53;1.60;;;;;;;;;;5077638;28;20217;-82
2023/01/18 10:13:53;;;;;;;4.00;1.87;;;;;;;;;;5078453;28;20208;-81
2023/01/18 10:16:21;;;;;;;4.23;1.23;;;;;;;;;;5077161;28;20201;-83
2023/01/18 10:18:54;;;;;;;3.33;1.43;;;;;;;;;;5072979;28;20196;-81
2023/01/18 10:21:27;;;;;;;3.77;1.40;;;;;;;;;;5083427;28;20256;-81
2023/01/18 10:24:04;;;;;;;2.50;1.53;;;;;;;;;;5075223;28;20208;-81
2023/01/18 10:26:36;;;;;;;1.87;1.57;;;;;;;;;;5079447;28;20330;-83
2023/01/18 10:29:14;;;;;;;2.13;1.57;;;;;;;;;;5072261;28;20208;-83
2023/01/18 10:31:47;;;;;;;1.60;1.43;;;;;;;;;;5075093;28;20308;-86
2023/01/18 10:34:18;;;;;;;3.13;2.90;;;;;;;;;;5080108;28;20284;-86
2023/01/18 10:36:52;;;;;;;4.43;1.93;;;;;;;;;;5080042;28;20221;-86
2023/01/18 10:39:28;;;;;;;1.00;1.00;;;;;;;;;;5079727;28;20209;-87
2023/01/18 10:41:58;;;;;;;1.20;1.10;;;;;;;;;;5078044;28;20224;-85
2023/01/18 10:44:28;;;;;;;2.33;1.17;;;;;;;;;;5078322;28;20296;-84
2023/01/18 10:46:57;;;;;;;1.50;1.23;;;;;;;;;;5073747;28;20217;-85
2023/01/18 10:49:37;;;;;;;3.03;1.77;;;;;;;;;;5081814;28;21313;-84
2023/01/18 10:52:22;;;;;;;1.37;1.10;;;;;;;;;;5078191;28;20700;-84
2023/01/18 10:55:00;;;;;;;3.60;1.57;;;;;;;;;;5087156;28;20205;-88
2023/01/18 10:57:31;;;;;;;1.57;1.27;;;;;;;;;;5084534;28;20201;-85
2023/01/18 11:00:01;;;;;;;1.87;1.30;;;;;;;;;;5072705;28;20198;-84
2023/01/18 11:02:31;;;;;;;10.40;2.77;;;;;;;;;;5082961;28;20201;-86
2023/01/18 11:05:02;;;;;;;2.47;1.27;;;;;;;;;;5081125;28;20212;-85
2023/01/18 11:07:31;;;;;;;2.30;2.00;;;;;;;;;;5083006;28;20197;-84
2023/01/18 11:10:05;;;;;;;2.83;1.40;;;;;;;;;;5084028;28;20216;-85
2023/01/18 11:12:36;;;;;;;7.07;2.13;;;;;;;;;;5088323;28;20219;-85
2023/01/18 11:15:23;;;;;;;3.03;1.43;;;;;;;;;;5083058;28;20201;-83
2023/01/18 11:18:02;;;;;;;3.67;2.80;;;;;;;;;;5083947;28;20201;-85
2023/01/18 11:20:33;;;;;;;5.23;2.30;;;;;;;;;;5084542;28;20237;-85
2023/01/18 11:23:02;;;;;;;1.33;1.30;;;;;;;;;;5079040;28;20242;-86
2023/01/18 11:25:36;;;;;;;3.83;1.57;;;;;;;;;;5082383;28;20201;-86
2023/01/18 11:28:07;;;;;;;2.73;1.53;;;;;;;;;;5075778;28;20212;-86
2023/01/18 11:30:38;;;;;;;2.73;1.50;;;;;;;;;;5086647;28;20201;-84
2023/01/18 11:33:06;;;;;;;1.73;1.37;;;;;;;;;;5077211;28;20229;-84
2023/01/18 11:35:36;;;;;;;7.20;1.70;;;;;;;;;;5085443;28;20196;-84
2023/01/18 11:38:07;;;;;;;2.80;1.53;;;;;;;;;;5085634;28;20193;-86
2023/01/18 11:40:36;;;;;;;3.63;2.13;;;;;;;;;;5074717;28;20213;-86
2023/01/18 11:43:12;;;;;;;3.70;1.63;;;;;;;;;;5077919;28;20201;-85
2023/01/18 11:45:46;;;;;;;5.47;1.83;;;;;;;;;;5074716;28;20212;-85
2023/01/18 11:48:25;;;;;;;3.77;1.50;;;;;;;;;;5075988;28;20206;-85
2023/01/18 11:50:56;;;;;;;3.93;2.20;;;;;;;;;;5085188;28;20207;-85
2023/01/18 11:53:35;;;;;;;3.37;1.87;;;;;;;;;;5079307;28;20221;-85
2023/01/18 11:56:09;;;;;;;1.10;1.10;;;;;;;;;;5082189;28;20209;-85
2023/01/18 11:58:37;;;;;;;2.23;2.03;;;;;;;;;;5078667;28;20216;-85
2023/01/18 12:01:20;;;;;;;3.70;1.70;;;;;;;;;;5082544;28;20201;-86
2023/01/18 12:03:51;;;;;;;1.03;1.03;;;;;;;;;;5066256;28;20301;-85
2023/01/18 12:06:26;;;;;;;1.20;1.10;;;;;;;;;;5082287;28;20221;-84
2023/01/18 12:08:58;;;;;;;14.57;2.70;;;;;;;;;;5079303;28;20223;-84
2023/01/18 12:11:33;;;;;;;1.03;1.03;;;;;;;;;;5084490;28;20202;-83
2023/01/18 12:14:04;;;;;;;2.03;1.07;;;;;;;;;;5079798;28;20203;-84
2023/01/18 12:16:42;;;;;;;5.70;1.37;;;;;;;;;;5078443;28;20189;-84
2023/01/18 12:19:25;;;;;;;2.10;1.20;;;;;;;;;;5086594;28;20209;-83
2023/01/18 12:22:06;;;;;;;2.27;1.50;;;;;;;;;;5083299;28;20241;-84
2023/01/18 12:24:43;;;;;;;2.30;1.07;;;;;;;;;;5100700;27;20201;-83
2023/01/18 12:27:18;;;;;;;2.90;1.43;;;;;;;;;;5124956;27;20202;-84
2023/01/18 12:30:03;;;;;;;2.00;1.53;;;;;;;;;;5122593;27;20200;-84
2023/01/18 12:32:39;;;;;;;2.50;1.57;;;;;;;;;;5104216;27;20218;-83
2023/01/18 12:35:18;;;;;;;6.37;1.57;;;;;;;;;;5104257;27;20216;-84
2023/01/18 12:37:55;;;;;;;3.50;1.90;;;;;;;;;;5119420;27;20204;-84
2023/01/18 12:40:30;;;;;;;2.73;1.27;;;;;;;;;;5104659;28;20203;-84
2023/01/18 12:43:05;;;;;;;2.43;1.40;;;;;;;;;;5123597;27;20194;-84
2023/01/18 12:45:36;;;;;;;9.07;1.50;;;;;;;;;;5106004;27;20256;-84
2023/01/18 12:48:16;;;;;;;1.97;1.47;;;;;;;;;;5122328;27;20259;-84
2023/01/18 12:50:46;;;;;;;2.97;1.03;;;;;;;;;;5099879;27;20207;-85
2023/01/18 12:53:17;;;;;;;3.00;1.60;;;;;;;;;;5103938;27;20203;-85
2023/01/18 12:55:47;;;;;;;1.47;1.37;;;;;;;;;;5102727;27;20230;-84
2023/01/18 12:58:19;;;;;;;10.53;2.00;;;;;;;;;;5107051;27;20225;-84
2023/01/18 13:00:50;;;;;;;3.73;2.00;;;;;;;;;;5106932;27;21452;-84
2023/01/18 13:03:24;;;;;;;3.17;1.50;;;;;;;;;;5110371;27;20191;-85
2023/01/18 13:05:56;;;;;;;2.07;1.87;;;;;;;;;;5105056;27;20222;-85
2023/01/18 13:08:30;;;;;;;1.20;1.10;;;;;;;;;;5120120;27;20212;-85
2023/01/18 13:11:04;;;;;;;2.83;1.80;;;;;;;;;;5103793;28;20203;-86
2023/01/18 13:13:32;;;;;;;2.50;1.67;;;;;;;;;;5104354;27;20219;-85
2023/01/18 13:16:03;;;;;;;1.37;1.27;;;;;;;;;;5101376;27;20208;-84
2023/01/18 13:18:36;;;;;;;2.87;1.90;;;;;;;;;;5105928;27;20225;-84
2023/01/18 13:21:09;;;;;;;5.23;1.90;;;;;;;;;;5102467;27;20239;-85
2023/01/18 13:23:44;;;;;;;1.70;1.23;;;;;;;;;;5098095;28;20195;-83
2023/01/18 13:26:20;;;;;;;1.20;1.10;;;;;;;;;;5104557;27;20191;-83
2023/01/18 13:28:48;;;;;;;1.17;1.07;;;;;;;;;;5114382;27;20200;-84
2023/01/18 13:31:30;;;;;;;3.27;1.70;;;;;;;;;;5111366;27;20232;-84
2023/01/18 13:34:00;;;;;;;3.40;1.70;;;;;;;;;;5101505;28;20212;-85
2023/01/18 13:36:28;;;;;;;3.77;1.57;;;;;;;;;;5107263;27;20199;-84
2023/01/18 13:38:59;;;;;;;2.23;1.37;;;;;;;;;;5113902;27;20204;-85
2023/01/18 13:41:29;;;;;;;1.30;1.20;;;;;;;;;;5098210;27;20200;-83
2023/01/18 13:44:00;;;;;;;3.67;1.63;;;;;;;;;;5116346;27;20188;-82
2023/01/18 13:46:30;;;;;;;2.17;1.37;;;;;;;;;;5105487;27;20195;-83
2023/01/18 13:49:01;;;;;;;4.97;1.27;;;;;;;;;;5102081;27;20229;-82
2023/01/18 13:51:50;;;;;;;4.33;2.13;;;;;;;;;;5108246;28;20199;-81
2023/01/18 13:54:20;;;;;;;4.90;1.60;;;;;;;;;;5120761;27;20208;-83
2023/01/18 13:57:03;;;;;;;6.80;1.80;;;;;;;;;;5102439;27;20286;-84
2023/01/18 13:59:33;;;;;;;4.60;1.60;;;;;;;;;;5102610;28;20196;-85
2023/01/18 14:02:07;;;;;;;2.80;2.13;;;;;;;;;;5101229;27;20215;-84
2023/01/18 14:04:38;;;;;;;6.87;2.10;;;;;;;;;;5096023;27;20204;-84
2023/01/18 14:07:08;;;;;;;1.97;1.77;;;;;;;;;;5097605;27;20226;-83
2023/01/18 14:09:40;;;;;;;1.37;1.27;;;;;;;;;;5121390;27;20203;-84
2023/01/18 14:12:09;;;;;;;7.57;1.80;;;;;;;;;;5103565;28;20201;-85
2023/01/18 14:14:52;;;;;;;2.13;1.77;;;;;;;;;;5102322;28;20247;-83
2023/01/18 14:17:22;;;;;;;8.23;1.97;;;;;;;;;;5097274;28;20294;-84
2023/01/18 14:20:12;;;;;;;2.60;1.57;;;;;;;;;;5097248;28;20204;-83
2023/01/18 14:22:47;;;;;;;2.70;1.43;;;;;;;;;;5091045;28;20232;-84
2023/01/18 14:25:29;;;;;;;2.43;2.10;;;;;;;;;;5108138;28;20233;-84
2023/01/18 14:28:02;;;;;;;7.43;2.53;;;;;;;;;;5116757;28;20256;-84
2023/01/18 14:30:32;;;;;;;16.33;2.37;;;;;;;;;;5119106;28;20232;-85
2023/01/18 14:33:04;;;;;;;6.70;1.77;;;;;;;;;;5108845;28;20192;-84
2023/01/18 14:35:32;;;;;;;2.73;1.57;;;;;;;;;;5124529;28;20196;-85
2023/01/18 14:38:14;;;;;;;4.93;2.30;;;;;;;;;;5103592;28;20200;-85
2023/01/18 14:40:46;;;;;;;1.60;1.50;;;;;;;;;;5106676;27;21463;-84
2023/01/18 14:43:19;;;;;;;1.63;1.40;;;;;;;;;;5127059;27;20200;-84
2023/01/18 14:45:53;;;;;;;3.50;1.97;;;;;;;;;;5120987;27;20227;-84
2023/01/18 14:48:23;;;;;;;7.00;2.27;;;;;;;;;;5111738;27;20294;-84
2023/01/18 14:50:52;;;;;;;9.73;4.07;;;;;;;;;;5119923;27;20203;-84
2023/01/18 14:53:26;;;;;;;3.13;1.60;;;;;;;;;;5137886;27;20216;-84
2023/01/18 14:56:05;;;;;;;1.43;1.37;;;;;;;;;;5137424;27;20237;-85
2023/01/18 14:58:35;;;;;;;3.17;1.50;;;;;;;;;;5118825;27;20216;-85
2023/01/18 15:01:04;;;;;;;1.90;1.47;;;;;;;;;;5118136;27;20225;-85
2023/01/18 15:03:32;;;;;;;8.57;2.13;;;;;;;;;;5119581;27;20203;-85
2023/01/18 15:06:03;;;;;;;5.70;1.30;;;;;;;;;;5136723;27;20280;-85
2023/01/18 15:08:36;;;;;;;2.87;1.97;;;;;;;;;;5119807;27;20204;-85
2023/01/18 15:11:05;;;;;;;2.43;1.73;;;;;;;;;;5137766;27;20188;-85
2023/01/18 15:13:34;;;;;;;4.13;2.43;;;;;;;;;;5119390;27;20208;-86
2023/01/18 15:16:02;;;;;;;1.83;1.73;;;;;;;;;;5137806;27;20204;-85
2023/01/18 15:18:31;;;;;;;4.13;3.37;;;;;;;;;;5119663;27;20196;-86
2023/01/18 15:21:01;;;;;;;5.30;1.70;;;;;;;;;;5119250;27;20235;-85
2023/01/18 15:23:30;;;;;;;2.73;1.47;;;;;;;;;;5119083;27;20195;-86
2023/01/18 15:26:00;;;;;;;1.50;1.40;;;;;;;;;;5118196;27;20344;-86
2023/01/18 15:28:32;;;;;;;3.90;2.00;;;;;;;;;;5119114;27;20199;-85
2023/01/18 15:31:05;;;;;;;4.60;2.37;;;;;;;;;;5119294;27;20195;-86
2023/01/18 15:33:35;;;;;;;5.20;1.67;;;;;;;;;;5119222;27;20195;-85
2023/01/18 15:36:04;;;;;;;3.87;2.10;;;;;;;;;;5119402;27;20254;-86
2023/01/18 15:38:32;;;;;;;2.83;1.30;;;;;;;;;;5119511;27;20188;-86